Time;durP1;ratioP1;P1;durP2;ratioP2;P2;SDS_P1;SDS_P2;PMS_P1;PMS_P2;Temp;Humidity;BMP_temperature;BMP_pressure;BME280_temperature;BME280_humidity;BME280_pressure;Samples;Min_cycle;Max_cycle;Signal;HPM_P1;HPM_P2
2023/04/26 00:02:04;;;;;;;20.57;9.07;;;;;;;;;;5037089;28;20187;-70
2023/04/26 00:04:30;;;;;;;14.97;8.50;;;;;;;;;;5020364;28;20273;-70
2023/04/26 00:06:56;;;;;;;228.00;105.80;;;;;;;;;;5036845;28;20203;-70
2023/04/26 00:09:22;;;;;;;31.87;17.80;;;;;;;;;;5037242;28;20713;-70
2023/04/26 00:11:48;;;;;;;18.33;8.50;;;;;;;;;;5019395;28;20449;-70
2023/04/26 00:14:14;;;;;;;14.30;7.60;;;;;;;;;;5019531;28;20190;-70
2023/04/26 00:16:40;;;;;;;12.50;6.83;;;;;;;;;;5037119;28;20445;-70
2023/04/26 00:19:06;;;;;;;16.00;6.47;;;;;;;;;;5037223;28;20234;-70
2023/04/26 00:21:32;;;;;;;12.83;6.83;;;;;;;;;;5036983;28;20183;-70
2023/04/26 00:23:58;;;;;;;12.93;6.57;;;;;;;;;;5036919;28;20233;-70
2023/04/26 00:26:24;;;;;;;14.23;6.57;;;;;;;;;;5018834;28;20187;-70
2023/04/26 00:28:50;;;;;;;13.90;7.20;;;;;;;;;;5037006;28;20179;-70
2023/04/26 00:31:16;;;;;;;12.57;5.97;;;;;;;;;;5019165;28;20199;-70
2023/04/26 00:33:43;;;;;;;13.47;6.33;;;;;;;;;;5019148;28;20741;-69
2023/04/26 00:36:09;;;;;;;12.37;6.53;;;;;;;;;;5018929;28;20418;-70
2023/04/26 00:38:35;;;;;;;11.57;6.53;;;;;;;;;;5018973;28;20438;-70
2023/04/26 00:41:01;;;;;;;10.40;7.17;;;;;;;;;;5036633;28;20409;-70
2023/04/26 00:43:27;;;;;;;17.23;7.10;;;;;;;;;;5036944;28;20672;-70
2023/04/26 00:45:53;;;;;;;12.40;6.53;;;;;;;;;;5036719;28;20184;-70
2023/04/26 00:48:20;;;;;;;14.70;7.03;;;;;;;;;;5036784;28;20752;-70
2023/04/26 00:50:46;;;;;;;13.03;6.73;;;;;;;;;;5036645;28;20800;-70
2023/04/26 00:53:13;;;;;;;16.30;7.00;;;;;;;;;;5036297;28;20413;-70
2023/04/26 00:55:40;;;;;;;11.07;5.97;;;;;;;;;;5036417;28;20446;-69
2023/04/26 00:58:06;;;;;;;10.47;6.37;;;;;;;;;;5036688;28;20245;-70
2023/04/26 01:00:32;;;;;;;14.33;7.70;;;;;;;;;;5036551;28;20410;-70
2023/04/26 01:02:59;;;;;;;12.87;7.10;;;;;;;;;;5036531;28;20410;-70
2023/04/26 01:05:25;;;;;;;12.83;7.03;;;;;;;;;;5036581;28;20501;-70
2023/04/26 01:07:51;;;;;;;12.67;6.63;;;;;;;;;;5018436;28;20445;-70
2023/04/26 01:10:17;;;;;;;8.77;5.97;;;;;;;;;;5018347;28;20500;-70
2023/04/26 01:12:43;;;;;;;12.23;6.73;;;;;;;;;;5018861;28;20421;-70
2023/04/26 01:15:10;;;;;;;14.53;6.60;;;;;;;;;;5019640;28;20183;-70
2023/04/26 01:17:36;;;;;;;10.83;6.47;;;;;;;;;;5036512;28;20453;-71
2023/04/26 01:20:03;;;;;;;17.63;6.80;;;;;;;;;;5036828;28;20465;-70
2023/04/26 01:22:32;;;;;;;12.63;7.60;;;;;;;;;;5018742;28;20175;-70
2023/04/26 01:24:59;;;;;;;14.97;7.23;;;;;;;;;;5035736;28;20433;-70
2023/04/26 01:27:25;;;;;;;14.30;7.03;;;;;;;;;;5036229;28;21070;-70
2023/04/26 01:29:51;;;;;;;14.80;7.53;;;;;;;;;;5017694;28;20210;-70
2023/04/26 01:32:17;;;;;;;11.83;7.20;;;;;;;;;;5018311;28;20457;-70
2023/04/26 01:34:43;;;;;;;11.30;7.30;;;;;;;;;;5035712;28;20421;-70
2023/04/26 01:37:09;;;;;;;17.80;7.10;;;;;;;;;;5018138;28;20215;-71
2023/04/26 01:39:35;;;;;;;11.63;6.87;;;;;;;;;;5035504;28;20410;-70
2023/04/26 01:42:01;;;;;;;11.30;6.97;;;;;;;;;;5035697;28;20203;-70
2023/04/26 01:44:27;;;;;;;12.93;8.10;;;;;;;;;;5017558;28;20191;-70
2023/04/26 01:46:53;;;;;;;10.63;6.57;;;;;;;;;;5017673;28;20442;-70
2023/04/26 01:49:19;;;;;;;12.90;7.23;;;;;;;;;;5035315;28;20553;-70
2023/04/26 01:51:45;;;;;;;13.27;7.00;;;;;;;;;;5017654;28;20457;-70
2023/04/26 01:54:12;;;;;;;13.00;7.73;;;;;;;;;;5035471;28;20666;-71
2023/04/26 01:56:37;;;;;;;16.43;7.63;;;;;;;;;;5017305;28;20808;-70
2023/04/26 01:59:03;;;;;;;12.13;7.27;;;;;;;;;;5017234;28;20420;-70
2023/04/26 02:01:30;;;;;;;14.77;8.17;;;;;;;;;;5017412;28;20665;-69
2023/04/26 02:03:56;;;;;;;13.33;7.87;;;;;;;;;;5016357;28;20187;-70
2023/04/26 02:06:22;;;;;;;12.87;7.60;;;;;;;;;;5035121;28;20467;-69
2023/04/26 02:08:48;;;;;;;15.70;8.43;;;;;;;;;;5034997;28;20641;-70
2023/04/26 02:11:14;;;;;;;12.43;7.80;;;;;;;;;;5035184;28;20546;-69
2023/04/26 02:13:40;;;;;;;17.47;9.03;;;;;;;;;;5017249;28;20453;-70
2023/04/26 02:16:06;;;;;;;17.63;8.67;;;;;;;;;;5017043;28;20228;-70
2023/04/26 02:18:32;;;;;;;12.73;8.30;;;;;;;;;;5034788;28;20499;-70
2023/04/26 02:20:58;;;;;;;13.63;8.63;;;;;;;;;;5034769;28;20447;-70
2023/04/26 02:23:24;;;;;;;14.97;8.90;;;;;;;;;;5035450;28;20528;-70
2023/04/26 02:25:50;;;;;;;17.90;10.77;;;;;;;;;;5036460;28;20179;-70
2023/04/26 02:28:16;;;;;;;20.27;9.83;;;;;;;;;;5021520;28;20257;-70
2023/04/26 02:30:43;;;;;;;21.70;9.87;;;;;;;;;;5023863;28;20458;-70
2023/04/26 02:33:09;;;;;;;18.03;9.70;;;;;;;;;;5036377;28;20501;-70
2023/04/26 02:35:36;;;;;;;19.83;9.77;;;;;;;;;;5035450;28;20406;-69
2023/04/26 02:38:02;;;;;;;12.83;9.03;;;;;;;;;;5017513;28;20450;-69
2023/04/26 02:40:29;;;;;;;14.63;8.80;;;;;;;;;;5017006;28;20835;-69
2023/04/26 02:42:55;;;;;;;13.93;9.37;;;;;;;;;;5034893;28;20414;-69
2023/04/26 02:45:21;;;;;;;18.30;9.93;;;;;;;;;;5016589;28;20457;-69
2023/04/26 02:47:47;;;;;;;20.63;10.27;;;;;;;;;;5034374;28;20445;-69
2023/04/26 02:50:13;;;;;;;17.37;10.27;;;;;;;;;;5016285;28;20426;-69
2023/04/26 02:52:39;;;;;;;18.63;9.70;;;;;;;;;;5016628;28;20179;-70
2023/04/26 02:55:06;;;;;;;16.10;9.80;;;;;;;;;;5016432;28;20463;-69
2023/04/26 02:57:32;;;;;;;14.93;10.10;;;;;;;;;;5034058;28;20845;-69
2023/04/26 02:59:58;;;;;;;20.10;11.03;;;;;;;;;;5016085;28;20802;-69
2023/04/26 03:02:24;;;;;;;16.23;10.80;;;;;;;;;;5034062;28;20410;-70
2023/04/26 03:04:51;;;;;;;17.10;10.43;;;;;;;;;;5034116;28;20179;-69
2023/04/26 03:07:17;;;;;;;18.53;10.40;;;;;;;;;;5016277;28;20446;-69
2023/04/26 03:09:42;;;;;;;17.33;10.40;;;;;;;;;;5016420;28;20942;-70
2023/04/26 03:12:09;;;;;;;15.13;10.10;;;;;;;;;;5034034;28;20313;-69
2023/04/26 03:14:35;;;;;;;17.07;10.87;;;;;;;;;;5034110;28;20187;-69
2023/04/26 03:17:02;;;;;;;16.47;10.03;;;;;;;;;;5015845;28;20445;-69
2023/04/26 03:19:28;;;;;;;21.37;11.80;;;;;;;;;;5034183;28;20951;-69
2023/04/26 03:21:54;;;;;;;16.63;11.00;;;;;;;;;;5034223;28;20778;-69
2023/04/26 03:24:20;;;;;;;24.47;11.70;;;;;;;;;;5033915;28;20824;-69
2023/04/26 03:26:46;;;;;;;17.13;11.27;;;;;;;;;;5016247;28;20441;-69
2023/04/26 03:29:12;;;;;;;20.20;12.23;;;;;;;;;;5016197;28;20421;-69
2023/04/26 03:31:38;;;;;;;19.70;11.60;;;;;;;;;;5033753;28;20221;-70
2023/04/26 03:34:05;;;;;;;17.73;11.70;;;;;;;;;;5015798;28;20333;-70
2023/04/26 03:36:31;;;;;;;22.53;12.83;;;;;;;;;;5033782;28;20186;-70
2023/04/26 03:38:57;;;;;;;15.70;11.97;;;;;;;;;;5015976;28;20410;-70
2023/04/26 03:41:23;;;;;;;19.20;12.83;;;;;;;;;;5033756;28;20186;-70
2023/04/26 03:43:49;;;;;;;16.97;12.67;;;;;;;;;;5015875;28;20187;-70
2023/04/26 03:46:15;;;;;;;27.73;12.63;;;;;;;;;;5033520;28;20484;-70
2023/04/26 03:48:41;;;;;;;25.17;14.23;;;;;;;;;;5033421;28;20414;-70
2023/04/26 03:51:07;;;;;;;21.83;13.07;;;;;;;;;;5015408;28;20203;-70
2023/04/26 03:53:33;;;;;;;20.13;13.67;;;;;;;;;;5033529;28;20254;-70
2023/04/26 03:55:59;;;;;;;22.00;12.87;;;;;;;;;;5033450;28;20434;-69
2023/04/26 03:58:25;;;;;;;19.60;12.93;;;;;;;;;;5033059;28;20477;-70
2023/04/26 04:00:51;;;;;;;25.83;12.77;;;;;;;;;;5015539;28;20278;-70
2023/04/26 04:03:17;;;;;;;22.17;14.07;;;;;;;;;;5015828;28;20827;-70
2023/04/26 04:05:43;;;;;;;19.17;14.30;;;;;;;;;;5033216;28;20429;-70
2023/04/26 04:08:09;;;;;;;22.63;13.30;;;;;;;;;;5015319;28;20265;-71
2023/04/26 04:10:36;;;;;;;20.70;13.70;;;;;;;;;;5033514;28;20246;-70
2023/04/26 04:13:02;;;;;;;23.03;13.90;;;;;;;;;;5032997;28;20911;-70
2023/04/26 04:15:28;;;;;;;31.43;14.30;;;;;;;;;;5033420;28;20502;-70
2023/04/26 04:17:54;;;;;;;21.97;13.30;;;;;;;;;;5032797;28;20881;-70
2023/04/26 04:20:21;;;;;;;20.97;14.07;;;;;;;;;;5015384;28;20559;-70
2023/04/26 04:22:47;;;;;;;21.37;13.30;;;;;;;;;;5016611;28;20179;-69
2023/04/26 04:25:13;;;;;;;21.47;13.70;;;;;;;;;;5015366;28;20421;-70
2023/04/26 04:27:41;;;;;;;24.10;13.67;;;;;;;;;;5034428;28;20282;-69
2023/04/26 04:30:07;;;;;;;17.30;13.23;;;;;;;;;;5018691;28;20416;-71
2023/04/26 04:32:34;;;;;;;22.83;13.47;;;;;;;;;;5018997;28;20425;-70
2023/04/26 04:35:00;;;;;;;17.00;13.20;;;;;;;;;;5018736;28;20464;-70
2023/04/26 04:37:27;;;;;;;22.63;13.73;;;;;;;;;;5018761;28;20487;-72
2023/04/26 04:39:53;;;;;;;24.60;14.13;;;;;;;;;;5036828;28;20923;-70
2023/04/26 04:42:20;;;;;;;20.60;12.40;;;;;;;;;;5044441;23;20502;-67
2023/04/26 04:44:46;;;;;;;22.47;13.63;;;;;;;;;;5000895;28;20502;-65
2023/04/26 04:47:12;;;;;;;19.90;12.83;;;;;;;;;;5019038;28;20395;-66
2023/04/26 04:49:38;;;;;;;23.90;13.73;;;;;;;;;;5018051;28;20403;-67
2023/04/26 04:52:05;;;;;;;18.37;13.33;;;;;;;;;;5017700;28;20513;-68
2023/04/26 04:54:31;;;;;;;27.40;15.07;;;;;;;;;;5001390;28;20461;-66
2023/04/26 04:56:57;;;;;;;25.57;13.97;;;;;;;;;;5018870;28;20423;-66
2023/04/26 04:59:24;;;;;;;25.23;13.97;;;;;;;;;;5018696;28;20190;-66
2023/04/26 05:01:50;;;;;;;25.67;13.50;;;;;;;;;;5018171;28;21008;-67
2023/04/26 05:04:16;;;;;;;21.00;13.93;;;;;;;;;;5017882;28;20443;-66
2023/04/26 05:06:42;;;;;;;28.97;14.10;;;;;;;;;;5000470;28;20454;-66
2023/04/26 05:09:10;;;;;;;28.53;13.10;;;;;;;;;;5017898;28;20411;-66
2023/04/26 05:11:36;;;;;;;28.50;15.33;;;;;;;;;;5000128;28;20696;-67
2023/04/26 05:14:02;;;;;;;28.83;15.60;;;;;;;;;;5018187;28;20434;-66
2023/04/26 05:16:28;;;;;;;20.43;14.80;;;;;;;;;;5000385;28;20646;-68
2023/04/26 05:18:54;;;;;;;22.20;14.83;;;;;;;;;;5000188;28;20614;-67
2023/04/26 05:21:21;;;;;;;26.60;15.30;;;;;;;;;;5000303;28;20191;-66
2023/04/26 05:23:46;;;;;;;23.97;14.30;;;;;;;;;;5018340;28;20266;-66
2023/04/26 05:26:13;;;;;;;22.50;14.63;;;;;;;;;;5000784;28;20269;-67
2023/04/26 05:28:40;;;;;;;24.33;14.63;;;;;;;;;;5017778;28;20183;-66
2023/04/26 05:31:06;;;;;;;31.63;15.07;;;;;;;;;;5017467;28;20257;-66
2023/04/26 05:33:32;;;;;;;23.00;14.00;;;;;;;;;;4999000;28;20211;-67
2023/04/26 05:35:58;;;;;;;24.10;14.20;;;;;;;;;;5015837;28;20176;-69
2023/04/26 05:38:24;;;;;;;23.10;11.73;;;;;;;;;;4996992;28;20179;-68
2023/04/26 05:40:50;;;;;;;13.20;11.30;;;;;;;;;;5014805;28;20190;-66
2023/04/26 05:43:16;;;;;;;22.17;10.43;;;;;;;;;;5015141;28;20215;-67
2023/04/26 05:45:52;;;;;;;26.70;10.90;;;;;;;;;;5015298;28;20700;-65
2023/04/26 05:48:18;;;;;;;22.97;10.50;;;;;;;;;;5015288;28;20199;-67
2023/04/26 05:50:44;;;;;;;22.73;10.23;;;;;;;;;;5015216;28;20249;-66
2023/04/26 05:53:10;;;;;;;21.87;11.23;;;;;;;;;;5014940;28;20275;-66
2023/04/26 05:55:36;;;;;;;17.27;11.87;;;;;;;;;;5015155;28;20176;-65
2023/04/26 05:58:02;;;;;;;16.73;11.10;;;;;;;;;;5015198;28;20172;-66
2023/04/26 06:00:28;;;;;;;18.07;12.43;;;;;;;;;;5015097;28;20555;-66
2023/04/26 06:02:54;;;;;;;20.33;12.83;;;;;;;;;;5015049;28;20574;-66
2023/04/26 06:05:20;;;;;;;19.20;11.60;;;;;;;;;;4997417;28;20184;-66
2023/04/26 06:07:46;;;;;;;21.10;11.10;;;;;;;;;;5014771;28;20215;-66
2023/04/26 06:10:12;;;;;;;15.03;11.13;;;;;;;;;;5014617;28;20266;-66
2023/04/26 06:12:38;;;;;;;20.23;11.27;;;;;;;;;;5014852;28;20239;-66
2023/04/26 06:15:05;;;;;;;15.20;11.03;;;;;;;;;;5014740;28;20582;-67
2023/04/26 06:17:31;;;;;;;19.33;11.40;;;;;;;;;;5015478;28;20176;-67
2023/04/26 06:20:00;;;;;;;21.77;11.30;;;;;;;;;;5016631;28;20190;-66
2023/04/26 06:22:26;;;;;;;18.87;11.53;;;;;;;;;;5017043;28;20191;-69
2023/04/26 06:24:52;;;;;;;15.33;11.40;;;;;;;;;;5014321;28;20192;-67
2023/04/26 06:27:18;;;;;;;22.00;11.23;;;;;;;;;;5014351;28;20175;-67
2023/04/26 06:29:44;;;;;;;19.57;11.00;;;;;;;;;;5014431;28;20665;-67
2023/04/26 06:32:10;;;;;;;17.87;11.20;;;;;;;;;;5014462;28;20689;-66
2023/04/26 06:34:36;;;;;;;16.83;11.43;;;;;;;;;;5014420;28;20207;-68
2023/04/26 06:37:02;;;;;;;23.17;11.10;;;;;;;;;;5014192;28;20176;-68
2023/04/26 06:39:28;;;;;;;14.83;10.37;;;;;;;;;;4996461;28;20182;-67
2023/04/26 06:41:55;;;;;;;17.90;10.10;;;;;;;;;;5013920;28;20212;-66
2023/04/26 06:44:21;;;;;;;17.93;10.40;;;;;;;;;;5014113;28;20653;-67
2023/04/26 06:46:48;;;;;;;16.37;10.53;;;;;;;;;;4996626;28;20184;-69
2023/04/26 06:49:14;;;;;;;19.97;10.67;;;;;;;;;;4996552;28;20712;-69
2023/04/26 06:51:40;;;;;;;20.70;10.83;;;;;;;;;;5013616;28;20238;-68
2023/04/26 06:54:06;;;;;;;18.07;9.90;;;;;;;;;;5013926;28;20176;-68
2023/04/26 06:56:32;;;;;;;13.20;9.87;;;;;;;;;;4996246;28;20178;-68
2023/04/26 06:58:59;;;;;;;15.87;10.97;;;;;;;;;;5014022;28;20180;-68
2023/04/26 07:01:25;;;;;;;20.17;10.40;;;;;;;;;;5014088;28;20184;-68
2023/04/26 07:03:51;;;;;;;16.60;10.20;;;;;;;;;;5013957;28;20677;-66
2023/04/26 07:06:17;;;;;;;15.40;10.00;;;;;;;;;;4996373;28;20207;-67
2023/04/26 07:08:43;;;;;;;14.83;9.57;;;;;;;;;;5013939;28;20191;-67
2023/04/26 07:11:09;;;;;;;18.97;9.10;;;;;;;;;;5014052;28;20207;-67
2023/04/26 07:13:35;;;;;;;15.13;8.50;;;;;;;;;;5013583;28;20176;-67
2023/04/26 07:16:01;;;;;;;17.50;9.67;;;;;;;;;;4995996;28;20684;-67
2023/04/26 07:18:27;;;;;;;18.80;10.37;;;;;;;;;;5014199;28;20731;-67
2023/04/26 07:20:53;;;;;;;16.17;9.37;;;;;;;;;;5014212;28;20650;-67
2023/04/26 07:23:20;;;;;;;15.33;8.93;;;;;;;;;;5014038;28;20681;-67
2023/04/26 07:25:46;;;;;;;21.90;9.73;;;;;;;;;;5015766;28;20183;-67
2023/04/26 07:28:12;;;;;;;15.70;8.40;;;;;;;;;;5016233;28;20246;-67
2023/04/26 07:30:38;;;;;;;13.37;6.23;;;;;;;;;;5015738;28;20203;-68
2023/04/26 07:33:04;;;;;;;11.87;6.47;;;;;;;;;;5015841;28;20578;-68
2023/04/26 07:35:30;;;;;;;11.57;6.30;;;;;;;;;;5016330;28;20270;-67
2023/04/26 07:37:59;;;;;;;11.63;4.63;;;;;;;;;;5016213;28;20187;-67
2023/04/26 07:40:28;;;;;;;7.73;3.73;;;;;;;;;;5015628;28;20175;-69
2023/04/26 07:42:55;;;;;;;9.43;3.83;;;;;;;;;;5015351;28;20278;-69
2023/04/26 07:45:21;;;;;;;10.23;3.17;;;;;;;;;;5016071;28;20238;-69
2023/04/26 07:47:47;;;;;;;10.23;3.63;;;;;;;;;;5014286;28;20179;-68
2023/04/26 07:50:13;;;;;;;8.13;3.80;;;;;;;;;;5013179;28;20190;-68
2023/04/26 07:52:39;;;;;;;9.57;4.57;;;;;;;;;;5013387;28;20203;-69
2023/04/26 07:55:05;;;;;;;20.77;5.20;;;;;;;;;;5013210;28;20176;-68
2023/04/26 07:57:31;;;;;;;10.30;4.20;;;;;;;;;;5013170;28;20600;-68
2023/04/26 07:59:57;;;;;;;9.87;4.30;;;;;;;;;;4995627;28;20184;-68
2023/04/26 08:02:23;;;;;;;9.43;3.23;;;;;;;;;;5014097;28;20210;-68
2023/04/26 08:04:54;;;;;;;7.27;4.13;;;;;;;;;;4999530;28;20184;-67
2023/04/26 08:07:20;;;;;;;11.73;3.80;;;;;;;;;;4999554;28;20674;-67
2023/04/26 08:09:47;;;;;;;7.10;3.60;;;;;;;;;;5016823;28;20205;-68
2023/04/26 08:12:13;;;;;;;11.60;3.70;;;;;;;;;;5016686;28;20231;-70
2023/04/26 08:14:40;;;;;;;6.77;3.90;;;;;;;;;;4999194;28;20658;-68
2023/04/26 08:17:08;;;;;;;6.47;4.57;;;;;;;;;;4999247;28;20184;-68
2023/04/26 08:19:35;;;;;;;8.23;4.10;;;;;;;;;;5016798;28;20259;-68
2023/04/26 08:22:01;;;;;;;9.60;4.60;;;;;;;;;;5016788;28;20212;-67
2023/04/26 08:24:27;;;;;;;11.37;5.57;;;;;;;;;;4999091;28;20187;-68
2023/04/26 08:26:53;;;;;;;9.77;4.77;;;;;;;;;;5016749;28;20187;-67
2023/04/26 08:29:19;;;;;;;12.87;5.17;;;;;;;;;;5016666;28;20175;-68
2023/04/26 08:31:45;;;;;;;9.20;5.20;;;;;;;;;;4999307;28;20265;-69
2023/04/26 08:34:12;;;;;;;9.63;4.47;;;;;;;;;;4998903;28;20180;-68
2023/04/26 08:36:38;;;;;;;10.60;4.83;;;;;;;;;;4998916;28;20271;-69
2023/04/26 08:39:04;;;;;;;11.20;5.63;;;;;;;;;;5016571;28;20583;-69
2023/04/26 08:41:34;;;;;;;8.57;4.77;;;;;;;;;;5016291;28;20294;-69
2023/04/26 08:44:04;;;;;;;8.37;4.30;;;;;;;;;;5016576;28;20226;-69
2023/04/26 08:46:33;;;;;;;6.00;3.10;;;;;;;;;;5016388;28;20175;-68
2023/04/26 08:49:26;;;;;;;7.20;2.90;;;;;;;;;;4998647;28;20188;-68
2023/04/26 08:51:52;;;;;;;7.27;3.00;;;;;;;;;;4976789;28;20234;-67
2023/04/26 08:54:19;;;;;;;6.83;3.23;;;;;;;;;;5016491;28;20172;-68
2023/04/26 08:56:45;;;;;;;5.17;3.10;;;;;;;;;;5016225;28;20665;-68
2023/04/26 08:59:12;;;;;;;5.30;2.90;;;;;;;;;;4998476;28;20207;-67
2023/04/26 09:01:43;;;;;;;9.70;4.50;;;;;;;;;;5016108;28;20199;-67
2023/04/26 09:04:10;;;;;;;4.90;4.03;;;;;;;;;;5016198;28;20253;-68
2023/04/26 09:06:36;;;;;;;5.33;3.60;;;;;;;;;;5016351;28;20206;-69
2023/04/26 09:09:06;;;;;;;13.33;4.13;;;;;;;;;;5016302;28;20572;-67
2023/04/26 09:11:51;;;;;;;9.33;4.43;;;;;;;;;;5015885;28;20689;-68
2023/04/26 09:14:16;;;;;;;8.60;3.10;;;;;;;;;;4998122;28;20176;-67
2023/04/26 09:16:42;;;;;;;4.90;2.80;;;;;;;;;;5015817;28;20176;-67
2023/04/26 09:19:09;;;;;;;6.60;3.20;;;;;;;;;;5015590;28;20179;-65
2023/04/26 09:21:40;;;;;;;10.07;3.67;;;;;;;;;;4998038;28;20570;-68
2023/04/26 09:24:06;;;;;;;4.13;2.33;;;;;;;;;;4998054;28;20226;-68
2023/04/26 09:26:32;;;;;;;5.93;2.80;;;;;;;;;;5015791;28;20187;-69
2023/04/26 09:29:15;;;;;;;7.73;2.93;;;;;;;;;;5015428;28;20192;-69
2023/04/26 09:31:43;;;;;;;7.53;2.87;;;;;;;;;;5015477;28;20215;-67
2023/04/26 09:34:09;;;;;;;11.53;2.80;;;;;;;;;;4997975;28;20211;-67
2023/04/26 09:36:47;;;;;;;7.03;3.07;;;;;;;;;;5015428;28;20180;-68
2023/04/26 09:39:13;;;;;;;7.83;3.03;;;;;;;;;;4997777;28;20179;-69
2023/04/26 09:41:43;;;;;;;8.73;4.00;;;;;;;;;;5014983;28;20223;-67
2023/04/26 09:44:22;;;;;;;7.27;3.57;;;;;;;;;;4997872;28;20230;-68
2023/04/26 09:46:58;;;;;;;7.63;3.90;;;;;;;;;;4997567;28;20186;-67
2023/04/26 09:49:26;;;;;;;8.70;3.47;;;;;;;;;;4997724;28;20596;-68
2023/04/26 09:52:02;;;;;;;9.07;3.90;;;;;;;;;;5015072;28;20713;-68
2023/04/26 09:55:01;;;;;;;9.23;3.83;;;;;;;;;;5015146;28;20190;-68
2023/04/26 09:57:27;;;;;;;7.67;3.93;;;;;;;;;;4966013;28;20188;-68
2023/04/26 09:59:55;;;;;;;5.87;3.50;;;;;;;;;;5015586;28;20649;-67
2023/04/26 10:02:21;;;;;;;9.20;3.70;;;;;;;;;;5014849;28;20200;-69
2023/04/26 10:04:52;;;;;;;6.07;3.63;;;;;;;;;;5014878;28;20175;-68
2023/04/26 10:07:19;;;;;;;7.07;3.80;;;;;;;;;;4997153;28;20750;-67
2023/04/26 10:09:45;;;;;;;7.23;3.33;;;;;;;;;;4997192;28;20271;-70
2023/04/26 10:12:12;;;;;;;8.50;3.10;;;;;;;;;;5014688;28;20261;-67
2023/04/26 10:14:38;;;;;;;6.70;2.80;;;;;;;;;;4997163;28;20176;-69
2023/04/26 10:17:05;;;;;;;5.07;2.70;;;;;;;;;;5015061;28;20222;-68
2023/04/26 10:19:32;;;;;;;8.27;3.10;;;;;;;;;;5014889;28;20647;-69
2023/04/26 10:22:01;;;;;;;5.17;2.80;;;;;;;;;;5014612;28;20558;-68
2023/04/26 10:24:27;;;;;;;6.37;2.77;;;;;;;;;;4996591;28;20195;-67
2023/04/26 10:26:56;;;;;;;6.40;2.77;;;;;;;;;;5014311;28;20203;-69
2023/04/26 10:29:22;;;;;;;5.90;2.90;;;;;;;;;;5014334;28;20175;-67
2023/04/26 10:32:00;;;;;;;6.80;3.00;;;;;;;;;;5014271;28;20224;-67
2023/04/26 10:34:26;;;;;;;7.60;2.90;;;;;;;;;;5014321;28;20184;-69
2023/04/26 10:37:08;;;;;;;6.53;2.63;;;;;;;;;;5014701;28;20177;-67
2023/04/26 10:39:35;;;;;;;5.83;3.30;;;;;;;;;;5014647;28;20180;-69
2023/04/26 10:42:24;;;;;;;7.83;3.57;;;;;;;;;;4996671;28;20223;-69
2023/04/26 10:44:51;;;;;;;5.67;3.40;;;;;;;;;;4997471;28;20172;-67
2023/04/26 10:47:33;;;;;;;9.53;3.90;;;;;;;;;;5014405;28;20203;-68
2023/04/26 10:50:04;;;;;;;4.53;3.40;;;;;;;;;;4996649;28;20271;-67
2023/04/26 10:52:30;;;;;;;9.90;3.47;;;;;;;;;;4996479;28;20768;-67
2023/04/26 10:54:57;;;;;;;5.87;3.10;;;;;;;;;;5014414;28;20203;-67
2023/04/26 10:57:24;;;;;;;4.00;3.10;;;;;;;;;;5014526;28;20176;-68
2023/04/26 11:00:15;;;;;;;7.90;3.70;;;;;;;;;;5014661;28;20179;-67
2023/04/26 11:03:04;;;;;;;7.70;2.83;;;;;;;;;;4997361;28;20198;-67
2023/04/26 11:05:48;;;;;;;9.13;4.87;;;;;;;;;;5014472;28;20168;-68
2023/04/26 11:08:16;;;;;;;14.03;6.53;;;;;;;;;;4996312;28;20187;-68
2023/04/26 11:10:42;;;;;;;6.93;4.17;;;;;;;;;;5014168;28;20200;-69
2023/04/26 11:13:08;;;;;;;6.40;2.93;;;;;;;;;;4996235;28;20203;-67
2023/04/26 11:15:35;;;;;;;7.13;3.43;;;;;;;;;;5014219;28;20176;-67
2023/04/26 11:18:04;;;;;;;8.47;3.40;;;;;;;;;;5013890;28;20591;-68
2023/04/26 11:20:31;;;;;;;5.63;2.90;;;;;;;;;;4996382;28;20175;-68
2023/04/26 11:22:57;;;;;;;8.33;3.13;;;;;;;;;;5013496;28;20577;-67
2023/04/26 11:25:27;;;;;;;9.27;4.00;;;;;;;;;;5013851;28;20171;-67
2023/04/26 11:27:57;;;;;;;7.53;3.53;;;;;;;;;;4996045;28;20191;-67
2023/04/26 11:30:23;;;;;;;5.57;3.60;;;;;;;;;;5013876;28;20179;-67
2023/04/26 11:32:49;;;;;;;11.57;4.53;;;;;;;;;;5013699;28;20597;-68
2023/04/26 11:35:15;;;;;;;12.13;5.87;;;;;;;;;;4995695;28;20176;-67
2023/04/26 11:37:41;;;;;;;13.43;9.13;;;;;;;;;;4999185;28;20226;-67
2023/04/26 11:40:10;;;;;;;7.20;4.07;;;;;;;;;;5017755;28;20178;-67
2023/04/26 11:42:36;;;;;;;7.23;3.50;;;;;;;;;;5017638;28;20712;-67
2023/04/26 11:45:05;;;;;;;5.03;3.10;;;;;;;;;;5000086;28;20700;-67
2023/04/26 11:47:31;;;;;;;7.50;5.00;;;;;;;;;;5017994;28;20182;-67
2023/04/26 11:49:57;;;;;;;6.17;3.70;;;;;;;;;;4999984;28;20186;-67
2023/04/26 11:52:23;;;;;;;5.53;3.00;;;;;;;;;;4999591;28;20215;-67
2023/04/26 11:54:49;;;;;;;8.20;4.60;;;;;;;;;;5017242;28;20183;-65
2023/04/26 11:57:17;;;;;;;9.67;3.40;;;;;;;;;;4999820;28;20283;-67
2023/04/26 11:59:43;;;;;;;12.87;3.57;;;;;;;;;;4999762;28;20180;-67
2023/04/26 12:02:09;;;;;;;6.70;3.00;;;;;;;;;;4999583;28;20203;-68
2023/04/26 12:04:37;;;;;;;7.83;3.53;;;;;;;;;;5017209;28;20715;-66
2023/04/26 12:07:03;;;;;;;5.37;3.70;;;;;;;;;;5017066;28;20191;-67
2023/04/26 12:09:30;;;;;;;9.83;5.87;;;;;;;;;;5017027;28;20190;-67
2023/04/26 12:12:00;;;;;;;9.47;4.10;;;;;;;;;;5016933;28;20219;-68
2023/04/26 12:14:30;;;;;;;8.10;3.00;;;;;;;;;;4999451;28;20180;-67
2023/04/26 12:16:58;;;;;;;5.97;3.30;;;;;;;;;;4999524;28;20230;-67
2023/04/26 12:19:24;;;;;;;6.60;3.00;;;;;;;;;;5016958;28;20712;-66
2023/04/26 12:21:52;;;;;;;6.80;3.50;;;;;;;;;;5017145;28;20195;-67
2023/04/26 12:24:25;;;;;;;7.50;4.37;;;;;;;;;;4999461;28;20176;-65
2023/04/26 12:26:51;;;;;;;6.40;4.03;;;;;;;;;;5017071;28;20560;-66
2023/04/26 12:29:17;;;;;;;6.83;3.30;;;;;;;;;;5017539;28;20202;-66
2023/04/26 12:31:43;;;;;;;6.80;3.10;;;;;;;;;;5017031;28;20654;-66
2023/04/26 12:34:09;;;;;;;7.87;4.50;;;;;;;;;;5016707;28;20208;-66
2023/04/26 12:36:35;;;;;;;6.80;4.00;;;;;;;;;;5016694;28;20176;-66
2023/04/26 12:39:04;;;;;;;7.83;3.90;;;;;;;;;;4998877;28;20191;-66
2023/04/26 12:41:30;;;;;;;12.40;4.23;;;;;;;;;;5016320;28;20192;-66
2023/04/26 12:43:56;;;;;;;8.00;3.87;;;;;;;;;;4998932;28;20175;-66
2023/04/26 12:46:22;;;;;;;7.23;3.90;;;;;;;;;;5016366;28;20233;-66
2023/04/26 12:48:48;;;;;;;7.00;4.37;;;;;;;;;;4998192;28;20275;-66
2023/04/26 12:51:14;;;;;;;6.57;4.00;;;;;;;;;;5016543;28;20215;-66
2023/04/26 12:53:40;;;;;;;9.60;3.63;;;;;;;;;;5016285;28;20190;-66
2023/04/26 12:56:06;;;;;;;5.67;3.40;;;;;;;;;;5016221;28;20664;-66
2023/04/26 12:58:32;;;;;;;7.23;4.17;;;;;;;;;;4998518;28;20688;-66
2023/04/26 13:00:58;;;;;;;8.80;3.83;;;;;;;;;;5016655;28;20234;-66
2023/04/26 13:03:24;;;;;;;7.93;3.80;;;;;;;;;;5015903;28;20234;-66
2023/04/26 13:05:51;;;;;;;8.87;3.30;;;;;;;;;;5016388;28;20616;-66
2023/04/26 13:08:17;;;;;;;6.87;3.60;;;;;;;;;;5016348;28;20548;-66
2023/04/26 13:10:43;;;;;;;9.20;3.97;;;;;;;;;;5016206;28;20250;-68
2023/04/26 13:13:09;;;;;;;12.03;4.00;;;;;;;;;;5015752;28;20703;-67
2023/04/26 13:15:35;;;;;;;5.30;3.47;;;;;;;;;;4998107;28;20179;-68
2023/04/26 13:18:01;;;;;;;6.40;3.70;;;;;;;;;;5015740;28;20179;-68
2023/04/26 13:20:27;;;;;;;7.30;3.50;;;;;;;;;;4998088;28;20551;-66
2023/04/26 13:22:53;;;;;;;10.13;3.73;;;;;;;;;;4998272;28;20208;-68
2023/04/26 13:25:19;;;;;;;6.90;3.50;;;;;;;;;;5015745;28;20660;-67
2023/04/26 13:27:45;;;;;;;7.17;3.43;;;;;;;;;;5015754;28;20175;-67
2023/04/26 13:30:12;;;;;;;10.60;3.87;;;;;;;;;;5016286;28;20517;-67
2023/04/26 13:32:38;;;;;;;7.27;4.00;;;;;;;;;;5015869;28;20230;-67
2023/04/26 13:35:04;;;;;;;5.10;3.60;;;;;;;;;;5015614;28;20250;-66
2023/04/26 13:37:31;;;;;;;5.87;3.20;;;;;;;;;;4997812;28;20183;-67
2023/04/26 13:39:57;;;;;;;10.80;4.13;;;;;;;;;;5015120;28;20172;-67
2023/04/26 13:42:23;;;;;;;5.63;3.70;;;;;;;;;;4997470;28;20219;-67
2023/04/26 13:44:50;;;;;;;7.40;3.77;;;;;;;;;;5015209;28;20526;-65
2023/04/26 13:47:16;;;;;;;7.67;3.80;;;;;;;;;;5015697;28;20180;-67
2023/04/26 13:49:43;;;;;;;6.20;3.77;;;;;;;;;;5015274;28;20634;-67
2023/04/26 13:52:10;;;;;;;8.17;4.20;;;;;;;;;;4997660;28;20215;-67
2023/04/26 13:54:36;;;;;;;7.23;3.93;;;;;;;;;;5017048;28;20168;-67
2023/04/26 13:57:03;;;;;;;10.90;3.90;;;;;;;;;;4997751;28;20713;-69
2023/04/26 13:59:29;;;;;;;6.97;4.20;;;;;;;;;;5014683;28;20665;-68
2023/04/26 14:01:56;;;;;;;7.97;3.83;;;;;;;;;;4997457;28;20203;-67
2023/04/26 14:04:22;;;;;;;7.40;4.40;;;;;;;;;;5015636;28;20172;-67
2023/04/26 14:06:48;;;;;;;9.23;4.53;;;;;;;;;;5015263;28;20673;-67
2023/04/26 14:09:14;;;;;;;5.30;3.80;;;;;;;;;;5015330;28;20180;-67
2023/04/26 14:11:40;;;;;;;5.83;3.73;;;;;;;;;;5015334;28;20685;-67
2023/04/26 14:14:06;;;;;;;6.40;3.33;;;;;;;;;;4997306;28;20180;-67
2023/04/26 14:16:32;;;;;;;7.47;4.20;;;;;;;;;;4997125;28;20180;-67
2023/04/26 14:18:58;;;;;;;7.93;3.83;;;;;;;;;;5015161;28;20685;-67
2023/04/26 14:21:25;;;;;;;6.23;3.53;;;;;;;;;;5014882;28;20230;-67
2023/04/26 14:23:51;;;;;;;8.00;3.53;;;;;;;;;;5016106;28;20182;-67
2023/04/26 14:26:19;;;;;;;5.67;3.57;;;;;;;;;;5015577;28;20599;-68
2023/04/26 14:28:45;;;;;;;5.63;4.10;;;;;;;;;;5014824;28;20172;-66
2023/04/26 14:31:11;;;;;;;7.77;4.10;;;;;;;;;;5014332;28;20200;-68